Time;durP1;ratioP1;P1;durP2;ratioP2;P2;SDS_P1;SDS_P2;PMS_P1;PMS_P2;Temp;Humidity;BMP_temperature;BMP_pressure;BME280_temperature;BME280_humidity;BME280_pressure;Samples;Min_cycle;Max_cycle;Signal;HPM_P1;HPM_P2
2023/03/31 00:01:51;;;;;;;7.20;3.88;;;11.70;77.70;;;;;;4952936;28;20054;-63
2023/03/31 00:04:17;;;;;;;8.05;3.72;;;11.70;77.70;;;;;;4952853;28;20039;-63
2023/03/31 00:06:43;;;;;;;8.95;4.00;;;11.70;77.60;;;;;;4954430;28;20039;-63
2023/03/31 00:09:11;;;;;;;7.85;3.47;;;11.70;77.60;;;;;;4953921;28;20097;-63
2023/03/31 00:11:38;;;;;;;6.45;3.75;;;11.60;77.50;;;;;;4955438;28;20055;-62
2023/03/31 00:14:06;;;;;;;8.00;4.07;;;11.70;77.60;;;;;;4952269;28;20031;-63
2023/03/31 00:16:35;;;;;;;11.65;4.13;;;11.70;77.70;;;;;;4956513;28;20525;-62
2023/03/31 00:19:01;;;;;;;8.77;4.30;;;11.70;77.80;;;;;;4949927;28;20048;-63
2023/03/31 00:21:35;;;;;;;7.15;4.20;;;11.70;77.70;;;;;;4952747;28;20039;-64
2023/03/31 00:24:09;;;;;;;6.53;4.18;;;11.70;77.70;;;;;;4953600;28;20039;-63
2023/03/31 00:26:36;;;;;;;7.15;3.90;;;11.70;77.70;;;;;;4952662;28;20515;-64
2023/03/31 00:29:05;;;;;;;7.47;3.78;;;11.70;77.70;;;;;;4953644;28;20063;-62
2023/03/31 00:31:31;;;;;;;7.43;3.92;;;11.70;77.60;;;;;;4955936;28;20031;-64
2023/03/31 00:33:57;;;;;;;7.65;4.13;;;11.70;77.60;;;;;;4954391;28;20094;-63
2023/03/31 00:36:26;;;;;;;8.10;4.25;;;11.70;77.50;;;;;;4947241;28;21345;-62
2023/03/31 00:39:07;;;;;;;5.60;4.00;;;11.70;77.50;;;;;;4953346;28;20039;-60
2023/03/31 00:41:35;;;;;;;7.65;4.25;;;11.70;77.30;;;;;;4955651;28;20450;-63
2023/03/31 00:44:14;;;;;;;6.88;3.80;;;11.70;77.20;;;;;;4954953;28;20033;-62
2023/03/31 00:46:55;;;;;;;9.25;4.10;;;11.80;77.20;;;;;;4951300;28;20075;-62
2023/03/31 00:49:32;;;;;;;8.35;4.47;;;11.80;77.10;;;;;;4957921;28;20039;-62
2023/03/31 00:52:23;;;;;;;5.22;3.92;;;11.80;77.20;;;;;;4955592;28;20043;-64
2023/03/31 00:54:54;;;;;;;7.28;4.10;;;11.80;77.00;;;;;;4957633;28;20070;-61
2023/03/31 00:57:21;;;;;;;7.28;4.40;;;11.80;76.90;;;;;;4955449;28;20031;-63
2023/03/31 00:59:50;;;;;;;6.03;4.18;;;11.80;76.80;;;;;;4953732;28;20406;-62
2023/03/31 01:02:19;;;;;;;7.38;4.18;;;11.80;76.80;;;;;;4956602;28;20081;-61
2023/03/31 01:04:49;;;;;;;9.43;4.07;;;11.80;76.80;;;;;;4953697;28;20038;-61
2023/03/31 01:07:25;;;;;;;8.07;4.07;;;11.90;76.90;;;;;;4952459;28;20034;-63
2023/03/31 01:09:55;;;;;;;8.13;3.92;;;11.80;77.00;;;;;;4956521;28;20078;-63
2023/03/31 01:12:22;;;;;;;8.73;4.03;;;11.90;76.90;;;;;;4956239;28;20046;-62
2023/03/31 01:14:50;;;;;;;9.80;3.70;;;11.90;76.80;;;;;;4957433;28;20042;-62
2023/03/31 01:17:18;;;;;;;7.78;4.03;;;11.90;76.80;;;;;;4955688;28;20034;-63
2023/03/31 01:19:46;;;;;;;11.82;4.20;;;11.90;76.80;;;;;;4958436;28;20031;-62
2023/03/31 01:22:58;;;;;;;8.65;3.90;;;11.90;76.70;;;;;;4958700;28;20071;-62
2023/03/31 01:25:42;;;;;;;7.00;3.67;;;11.90;76.60;;;;;;4957923;28;20035;-62
2023/03/31 01:29:00;;;;;;;8.53;3.80;;;12.00;76.50;;;;;;4954527;28;20085;-63
2023/03/31 01:31:59;;;;;;;9.15;4.00;;;12.00;76.30;;;;;;4896492;29;20032;-58
2023/03/31 01:34:25;;;;;;;5.70;3.90;;;12.10;76.30;;;;;;4893558;29;20497;-63
2023/03/31 01:37:13;;;;;;;7.07;3.80;;;12.10;76.30;;;;;;4934560;28;20042;-63
2023/03/31 01:40:18;;;;;;;7.07;3.75;;;12.10;76.50;;;;;;4954366;28;20405;-61
2023/03/31 01:42:53;;;;;;;7.25;3.50;;;12.10;76.40;;;;;;4955522;28;20045;-63
2023/03/31 01:45:33;;;;;;;6.03;3.92;;;12.10;76.30;;;;;;4958285;28;20036;-62
2023/03/31 01:48:05;;;;;;;9.27;4.10;;;12.20;76.40;;;;;;4957370;28;20053;-63
2023/03/31 01:50:42;;;;;;;9.20;3.70;;;12.20;76.50;;;;;;4958114;28;20050;-63
2023/03/31 01:53:34;;;;;;;6.20;3.45;;;12.20;76.70;;;;;;4957586;28;20094;-63
2023/03/31 01:56:04;;;;;;;8.07;3.63;;;12.20;77.00;;;;;;4955632;28;20133;-63
2023/03/31 01:58:55;;;;;;;9.20;4.03;;;12.10;76.80;;;;;;4958212;28;20047;-63
2023/03/31 02:01:34;;;;;;;6.80;3.38;;;12.20;77.60;;;;;;4954539;28;20126;-64
2023/03/31 02:04:06;;;;;;;4.70;3.58;;;12.10;77.50;;;;;;4953753;28;20030;-63
2023/03/31 02:06:38;;;;;;;9.93;3.88;;;12.10;77.80;;;;;;4958284;28;20061;-63
2023/03/31 02:09:09;;;;;;;6.57;3.65;;;12.10;77.90;;;;;;4957532;28;20074;-64
2023/03/31 02:11:38;;;;;;;9.73;3.90;;;12.20;78.00;;;;;;4958546;28;20039;-63
2023/03/31 02:14:07;;;;;;;7.00;3.55;;;12.20;78.20;;;;;;4953860;28;20035;-64
2023/03/31 02:16:40;;;;;;;6.75;3.75;;;12.20;78.10;;;;;;4936082;28;20529;-63
2023/03/31 02:19:08;;;;;;;8.13;3.80;;;12.20;78.20;;;;;;4956988;28;20169;-64
2023/03/31 02:21:37;;;;;;;7.82;3.47;;;12.20;78.20;;;;;;4956444;28;20058;-64
2023/03/31 02:24:10;;;;;;;7.72;3.90;;;12.20;78.40;;;;;;4955520;28;20463;-63
2023/03/31 02:26:55;;;;;;;7.95;3.60;;;12.20;78.80;;;;;;4961005;28;20043;-63
2023/03/31 02:29:21;;;;;;;8.88;3.80;;;12.20;79.30;;;;;;4960614;28;20055;-63
2023/03/31 02:31:55;;;;;;;12.50;3.85;;;12.20;78.90;;;;;;4960413;28;20034;-63
2023/03/31 02:34:20;;;;;;;6.18;3.95;;;12.10;79.30;;;;;;4955231;28;20097;-62
2023/03/31 02:36:47;;;;;;;7.45;3.55;;;12.10;79.20;;;;;;4955787;28;22383;-63
2023/03/31 02:39:22;;;;;;;8.65;3.70;;;12.10;79.40;;;;;;4957057;28;20284;-63
2023/03/31 02:41:48;;;;;;;;;;;12.10;80.60;;;;;;4955613;28;20035;-63
2023/03/31 02:44:15;;;;;;;7.55;3.33;;;12.10;80.00;;;;;;4954171;28;19924;-63
2023/03/31 02:46:41;;;;;;;8.23;3.47;;;12.10;79.30;;;;;;4950340;28;20105;-63
2023/03/31 02:49:09;;;;;;;6.65;3.53;;;12.10;79.40;;;;;;4957446;28;20043;-63
2023/03/31 02:52:19;;;;;;;6.72;3.80;;;12.10;79.70;;;;;;4955180;28;20074;-63
2023/03/31 02:55:06;;;;;;;5.22;3.05;;;12.10;80.60;;;;;;4958991;28;20058;-64
2023/03/31 02:57:59;;;;;;;7.75;3.60;;;12.10;80.60;;;;;;4952370;28;20027;-64
2023/03/31 03:00:46;;;;;;;6.97;3.20;;;12.10;80.70;;;;;;4956228;28;20035;-64
2023/03/31 03:03:30;;;;;;;8.00;3.67;;;12.10;80.60;;;;;;4958487;28;20041;-63
2023/03/31 03:06:05;;;;;;;6.30;4.13;;;12.00;81.00;;;;;;4954039;28;20062;-63
2023/03/31 03:08:56;;;;;;;7.05;4.28;;;12.00;80.10;;;;;;4956316;28;20031;-64
2023/03/31 03:11:43;;;;;;;5.30;4.03;;;11.90;81.10;;;;;;4955898;28;20046;-63
2023/03/31 03:14:12;;;;;;;9.68;4.32;;;11.90;81.30;;;;;;4952554;28;20046;-63
2023/03/31 03:16:42;;;;;;;8.07;4.40;;;11.80;80.90;;;;;;4938789;28;20038;-62
2023/03/31 03:19:09;;;;;;;7.97;4.80;;;11.70;81.10;;;;;;4955711;28;20050;-63
2023/03/31 03:21:34;;;;;;;7.55;4.65;;;11.70;81.20;;;;;;4953249;28;20527;-63
2023/03/31 03:24:00;;;;;;;8.45;4.55;;;11.60;81.30;;;;;;4955311;28;20106;-62
2023/03/31 03:26:27;;;;;;;8.02;5.18;;;11.50;81.50;;;;;;4952658;28;20063;-63
2023/03/31 03:28:56;;;;;;;7.93;4.85;;;11.60;81.70;;;;;;4949568;28;20040;-63
2023/03/31 03:31:22;;;;;;;10.25;5.00;;;11.50;82.10;;;;;;4951421;28;20491;-62
2023/03/31 03:33:49;;;;;;;6.15;4.57;;;11.50;82.00;;;;;;4958582;28;20388;-63
2023/03/31 03:36:15;;;;;;;11.27;4.90;;;11.40;82.10;;;;;;4937921;28;20039;-63
2023/03/31 03:38:40;;;;;;;9.73;5.60;;;11.40;82.40;;;;;;4955571;28;20054;-62
2023/03/31 03:41:06;;;;;;;12.60;5.15;;;11.30;82.20;;;;;;4952282;28;20418;-63
2023/03/31 03:43:32;;;;;;;8.73;5.28;;;11.30;82.60;;;;;;4954757;28;20042;-63
2023/03/31 03:45:57;;;;;;;7.60;5.00;;;11.30;82.80;;;;;;4953140;28;20043;-64
2023/03/31 03:48:23;;;;;;;7.97;4.85;;;11.30;82.90;;;;;;4954448;28;20047;-63
2023/03/31 03:50:49;;;;;;;6.68;4.55;;;11.30;83.10;;;;;;4949417;28;20039;-64
2023/03/31 03:53:15;;;;;;;11.38;4.68;;;11.30;83.10;;;;;;4954407;28;20101;-61
2023/03/31 03:55:41;;;;;;;9.73;4.70;;;11.20;83.10;;;;;;4954280;28;20601;-63
2023/03/31 03:58:07;;;;;;;9.48;5.03;;;11.30;83.30;;;;;;4953346;28;20041;-62
2023/03/31 04:00:33;;;;;;;9.43;4.78;;;11.20;83.30;;;;;;4953626;28;20054;-63
2023/03/31 04:02:58;;;;;;;8.63;4.82;;;11.30;83.40;;;;;;4952998;28;20114;-63
2023/03/31 04:05:24;;;;;;;8.73;4.80;;;11.30;83.40;;;;;;4956115;28;20067;-63
2023/03/31 04:07:49;;;;;;;9.48;4.57;;;11.30;83.30;;;;;;4955716;28;20046;-63
2023/03/31 04:10:15;;;;;;;8.40;4.60;;;11.30;83.30;;;;;;4956044;28;20238;-63
2023/03/31 04:12:41;;;;;;;7.80;5.00;;;11.30;83.30;;;;;;4953176;28;20414;-63
2023/03/31 04:15:07;;;;;;;7.95;5.43;;;11.30;83.20;;;;;;4952509;28;20067;-63
2023/03/31 04:17:33;;;;;;;8.00;5.55;;;11.30;83.10;;;;;;4945223;28;20549;-62
2023/03/31 04:20:08;;;;;;;8.18;5.43;;;11.30;83.10;;;;;;4951826;28;20070;-63
2023/03/31 04:22:39;;;;;;;9.43;5.18;;;11.30;83.40;;;;;;4954978;28;20038;-62
2023/03/31 04:25:13;;;;;;;11.70;5.68;;;11.20;83.10;;;;;;4946171;28;20035;-63
2023/03/31 04:27:55;;;;;;;9.02;5.72;;;11.20;82.90;;;;;;4951945;28;20083;-63
2023/03/31 04:30:22;;;;;;;10.00;5.45;;;11.20;82.90;;;;;;4946020;28;20678;-62
2023/03/31 04:32:53;;;;;;;11.02;5.25;;;11.20;82.70;;;;;;4949354;28;20319;-63
2023/03/31 04:35:20;;;;;;;7.53;5.07;;;11.20;82.70;;;;;;4950773;28;20583;-63
2023/03/31 04:37:47;;;;;;;9.02;5.10;;;11.20;82.50;;;;;;4952031;28;20039;-64
2023/03/31 04:40:13;;;;;;;8.95;5.28;;;11.20;82.40;;;;;;4953774;28;20378;-63
2023/03/31 04:42:38;;;;;;;9.32;5.72;;;11.20;82.40;;;;;;4953731;28;20039;-62
2023/03/31 04:45:05;;;;;;;12.43;5.80;;;11.20;82.60;;;;;;4955787;28;20035;-63
2023/03/31 04:47:30;;;;;;;10.48;6.40;;;11.10;82.50;;;;;;4956954;28;20038;-62
2023/03/31 04:49:56;;;;;;;12.05;6.32;;;11.10;82.60;;;;;;4956218;28;20039;-63
2023/03/31 04:52:21;;;;;;;8.93;5.90;;;11.10;82.70;;;;;;4957320;28;20050;-64
2023/03/31 04:54:47;;;;;;;8.93;5.55;;;11.20;82.90;;;;;;4955096;28;20039;-63
2023/03/31 04:57:13;;;;;;;9.95;5.30;;;11.10;82.90;;;;;;4957979;28;20409;-62
2023/03/31 04:59:38;;;;;;;7.65;5.20;;;11.10;83.00;;;;;;4957263;28;20038;-62
2023/03/31 05:02:04;;;;;;;8.85;5.63;;;11.10;83.10;;;;;;4957332;28;20031;-63
2023/03/31 05:04:29;;;;;;;8.35;4.78;;;11.10;83.10;;;;;;4956124;28;20404;-62
2023/03/31 05:06:55;;;;;;;8.68;4.97;;;11.10;83.30;;;;;;4957394;28;20054;-63
2023/03/31 05:09:21;;;;;;;9.68;5.10;;;11.10;83.30;;;;;;4959163;28;20039;-62
2023/03/31 05:11:46;;;;;;;10.88;5.95;;;11.10;83.30;;;;;;4965462;28;20532;-63
2023/03/31 05:14:12;;;;;;;9.77;5.30;;;11.10;83.40;;;;;;4959883;28;20678;-61
2023/03/31 05:16:38;;;;;;;8.00;4.68;;;11.10;83.40;;;;;;4959821;28;20034;-63
2023/03/31 05:19:03;;;;;;;8.48;5.20;;;11.10;83.40;;;;;;4959298;28;20035;-64
2023/03/31 05:21:30;;;;;;;10.50;5.18;;;11.10;83.40;;;;;;4960043;28;20097;-63
2023/03/31 05:23:56;;;;;;;5.93;4.63;;;11.10;83.30;;;;;;4960998;28;20038;-64
2023/03/31 05:26:24;;;;;;;7.28;4.75;;;11.10;83.40;;;;;;4960587;28;20046;-62
2023/03/31 05:28:50;;;;;;;10.95;5.28;;;11.10;83.60;;;;;;4960415;28;20039;-63
2023/03/31 05:31:16;;;;;;;12.10;5.15;;;11.10;83.70;;;;;;4957783;28;20166;-61
2023/03/31 05:33:42;;;;;;;7.15;4.53;;;11.10;83.90;;;;;;4959724;28;20415;-64
2023/03/31 05:36:14;;;;;;;9.48;5.10;;;11.10;84.00;;;;;;4961516;28;20211;-63
2023/03/31 05:38:39;;;;;;;8.52;5.18;;;11.10;85.30;;;;;;4961366;28;20093;-64
2023/03/31 05:41:07;;;;;;;9.05;4.90;;;11.10;84.30;;;;;;4962934;28;20031;-63
2023/03/31 05:43:32;;;;;;;11.43;5.43;;;11.10;84.50;;;;;;4961227;28;20039;-64
2023/03/31 05:45:58;;;;;;;11.93;5.95;;;11.00;84.50;;;;;;4959751;28;20363;-64
2023/03/31 05:48:24;;;;;;;8.82;6.00;;;11.10;84.80;;;;;;4959421;28;20078;-64
2023/03/31 05:50:49;;;;;;;9.27;5.75;;;11.00;84.90;;;;;;4958371;28;20040;-64
2023/03/31 05:53:15;;;;;;;11.27;5.25;;;11.00;85.00;;;;;;4960950;28;20039;-64
2023/03/31 05:55:40;;;;;;;10.45;5.43;;;10.90;85.00;;;;;;4959717;28;20125;-63
2023/03/31 05:58:07;;;;;;;13.20;5.57;;;10.90;85.10;;;;;;4961827;28;20525;-64
2023/03/31 06:00:35;;;;;;;7.63;5.20;;;10.80;85.30;;;;;;4959287;28;20359;-64
2023/03/31 06:03:00;;;;;;;6.65;4.85;;;10.80;85.50;;;;;;4960332;28;20035;-63
2023/03/31 06:05:26;;;;;;;7.40;5.07;;;10.80;85.70;;;;;;4959472;28;20035;-65
2023/03/31 06:07:52;;;;;;;8.77;5.03;;;10.80;85.90;;;;;;4959003;28;20458;-63
2023/03/31 06:10:19;;;;;;;8.73;5.05;;;10.80;86.10;;;;;;4960014;28;20576;-63
2023/03/31 06:12:45;;;;;;;7.88;5.18;;;10.80;86.20;;;;;;4958872;28;20406;-65
2023/03/31 06:15:10;;;;;;;8.73;5.53;;;10.80;86.20;;;;;;4958181;28;20035;-64
2023/03/31 06:17:36;;;;;;;10.48;5.95;;;10.80;86.30;;;;;;4952207;28;20492;-63
2023/03/31 06:20:03;;;;;;;10.20;5.72;;;10.90;86.20;;;;;;4955021;28;20032;-62
2023/03/31 06:22:28;;;;;;;9.57;5.25;;;10.90;86.20;;;;;;4957288;28;20532;-63
2023/03/31 06:24:54;;;;;;;7.00;4.93;;;10.90;86.10;;;;;;4957241;28;20035;-66
2023/03/31 06:27:20;;;;;;;8.32;5.00;;;11.00;86.20;;;;;;4957703;28;20118;-61
2023/03/31 06:29:45;;;;;;;10.60;5.50;;;11.00;86.00;;;;;;4959455;28;20038;-62
2023/03/31 06:32:11;;;;;;;9.70;5.55;;;11.10;86.00;;;;;;4959915;28;20577;-64
2023/03/31 06:34:37;;;;;;;8.75;4.82;;;11.10;85.90;;;;;;4958041;28;20026;-63
2023/03/31 06:37:02;;;;;;;9.20;5.55;;;11.20;85.90;;;;;;4958605;28;20035;-64
2023/03/31 06:39:28;;;;;;;13.88;6.15;;;11.20;85.70;;;;;;4958795;28;20027;-64
2023/03/31 06:41:53;;;;;;;9.48;6.35;;;11.20;85.60;;;;;;4959980;28;20122;-64
2023/03/31 06:44:21;;;;;;;11.38;6.72;;;11.30;85.40;;;;;;4960417;28;20039;-62
2023/03/31 06:46:47;;;;;;;11.35;6.40;;;11.30;85.30;;;;;;4958922;28;20126;-64
2023/03/31 06:49:13;;;;;;;14.55;6.63;;;11.30;85.10;;;;;;4959524;28;20478;-64
2023/03/31 06:51:39;;;;;;;10.73;5.72;;;11.30;85.00;;;;;;4961425;28;20125;-65
2023/03/31 06:54:05;;;;;;;8.52;5.57;;;11.20;85.00;;;;;;4959292;28;20141;-63
2023/03/31 06:56:30;;;;;;;9.63;5.57;;;11.20;85.20;;;;;;4955418;28;20043;-63
2023/03/31 06:58:56;;;;;;;12.25;5.95;;;11.20;85.50;;;;;;4960593;28;20070;-63
2023/03/31 07:01:22;;;;;;;12.15;6.40;;;11.10;85.60;;;;;;4960678;28;20042;-63
2023/03/31 07:03:47;;;;;;;10.38;7.70;;;11.10;85.70;;;;;;4959079;28;20039;-64
2023/03/31 07:06:13;;;;;;;14.07;9.13;;;11.10;85.90;;;;;;4955383;28;20061;-61
2023/03/31 07:08:39;;;;;;;15.02;8.95;;;11.10;86.00;;;;;;4954966;28;20073;-63
2023/03/31 07:11:04;;;;;;;19.67;8.68;;;11.10;86.20;;;;;;4954362;28;20042;-63
2023/03/31 07:13:30;;;;;;;14.13;9.13;;;11.10;86.40;;;;;;4958975;28;20043;-62
2023/03/31 07:15:56;;;;;;;15.98;9.85;;;11.00;86.40;;;;;;4958969;28;20039;-64
2023/03/31 07:18:24;;;;;;;14.05;9.55;;;11.10;86.70;;;;;;4958294;28;20105;-64
2023/03/31 07:20:51;;;;;;;11.65;7.70;;;11.10;87.80;;;;;;4958469;28;20409;-64
2023/03/31 07:23:17;;;;;;;10.43;6.53;;;11.20;87.40;;;;;;4956794;28;20607;-65
2023/03/31 07:25:44;;;;;;;12.05;5.90;;;11.10;87.80;;;;;;4958768;28;20039;-63
2023/03/31 07:28:10;;;;;;;11.68;5.90;;;11.20;88.30;;;;;;4959728;28;20042;-63
2023/03/31 07:30:35;;;;;;;7.38;5.00;;;11.30;88.50;;;;;;4958232;28;20050;-62
2023/03/31 07:33:01;;;;;;;12.43;6.40;;;11.30;88.50;;;;;;4960521;28;20051;-63
2023/03/31 07:35:27;;;;;;;11.63;5.20;;;11.40;88.60;;;;;;4958145;28;20035;-65
2023/03/31 07:37:53;;;;;;;9.32;5.20;;;11.50;88.80;;;;;;4958421;28;20098;-65
2023/03/31 07:40:28;;;;;;;9.20;4.85;;;11.50;88.60;;;;;;4959873;28;20078;-64
2023/03/31 07:42:54;;;;;;;9.32;5.30;;;11.60;89.30;;;;;;4956857;28;20043;-64
2023/03/31 07:45:21;;;;;;;10.85;5.75;;;11.60;89.00;;;;;;4956587;28;20437;-57
2023/03/31 07:47:47;;;;;;;8.00;4.47;;;11.60;89.20;;;;;;4957750;28;20109;-63
2023/03/31 07:50:13;;;;;;;9.68;5.88;;;11.60;89.00;;;;;;4957575;28;20454;-64
2023/03/31 07:52:39;;;;;;;7.38;4.40;;;11.60;89.80;;;;;;4958283;28;20062;-66
2023/03/31 07:55:06;;;;;;;3.88;3.45;;;11.50;88.20;;;;;;4956101;28;21144;-66
2023/03/31 07:57:32;;;;;;;4.55;2.70;;;11.50;87.60;;;;;;4959432;28;20031;-64
2023/03/31 07:59:58;;;;;;;3.53;2.75;;;11.40;87.80;;;;;;4960351;28;20046;-65
2023/03/31 08:02:23;;;;;;;6.45;2.35;;;11.50;87.00;;;;;;4953452;28;20803;-63
2023/03/31 08:04:49;;;;;;;3.67;1.63;;;11.50;86.90;;;;;;4957797;28;20498;-64
2023/03/31 08:07:15;;;;;;;3.42;1.63;;;11.50;86.70;;;;;;4951569;28;20047;-64
2023/03/31 08:09:43;;;;;;;2.60;1.67;;;11.50;85.80;;;;;;4956088;28;20407;-61
2023/03/31 08:12:08;;;;;;;2.65;1.70;;;11.60;85.40;;;;;;4959537;28;20043;-62
2023/03/31 08:14:34;;;;;;;2.38;1.45;;;11.60;85.00;;;;;;4956584;28;20086;-64
2023/03/31 08:17:00;;;;;;;3.15;1.65;;;11.70;84.50;;;;;;4957644;28;20120;-64
2023/03/31 08:19:26;;;;;;;1.60;1.50;;;11.80;84.30;;;;;;4958363;28;20031;-62
2023/03/31 08:21:52;;;;;;;3.03;1.90;;;11.80;84.00;;;;;;4959257;28;20038;-63
2023/03/31 08:24:18;;;;;;;2.80;2.50;;;11.80;83.60;;;;;;4958328;28;20245;-62
2023/03/31 08:26:44;;;;;;;2.83;2.50;;;11.90;82.70;;;;;;4957941;28;20147;-64
2023/03/31 08:29:10;;;;;;;2.60;2.40;;;11.90;82.40;;;;;;4958922;28;20033;-63
2023/03/31 08:31:36;;;;;;;3.42;3.13;;;12.00;82.30;;;;;;4958874;28;20091;-63
2023/03/31 08:34:02;;;;;;;3.72;2.17;;;12.10;82.40;;;;;;4958307;28;20060;-62
2023/03/31 08:36:28;;;;;;;2.00;1.63;;;12.20;82.40;;;;;;4957944;28;20030;-63
2023/03/31 08:38:54;;;;;;;1.48;1.20;;;12.30;81.70;;;;;;4959010;28;20047;-61
2023/03/31 08:41:53;;;;;;;4.70;1.52;;;12.40;80.30;;;;;;4941799;28;20089;-63
2023/03/31 08:44:31;;;;;;;1.40;1.02;;;12.40;79.40;;;;;;4959911;28;20571;-63
2023/03/31 08:47:00;;;;;;;1.95;0.88;;;12.50;80.00;;;;;;4957795;28;20078;-62
2023/03/31 08:49:30;;;;;;;2.28;1.08;;;12.60;79.30;;;;;;4957029;28;20039;-65
2023/03/31 08:52:00;;;;;;;1.70;1.40;;;12.70;78.90;;;;;;4958128;28;20057;-62
2023/03/31 08:54:30;;;;;;;1.58;0.90;;;12.80;79.20;;;;;;4958472;28;20058;-63
2023/03/31 08:56:56;;;;;;;1.23;0.70;;;12.90;79.10;;;;;;4957129;28;20118;-63
2023/03/31 08:59:36;;;;;;;2.10;0.60;;;13.00;79.40;;;;;;4956278;28;20032;-62
2023/03/31 09:02:35;;;;;;;1.48;0.70;;;13.10;79.60;;;;;;4957515;28;20522;-62
2023/03/31 09:05:05;;;;;;;2.40;1.48;;;13.20;78.50;;;;;;4956655;28;20498;-62
2023/03/31 09:07:43;;;;;;;1.42;0.98;;;13.30;79.40;;;;;;4958951;28;20024;-63
2023/03/31 09:10:11;;;;;;;1.50;0.80;;;13.40;79.00;;;;;;4958403;28;20520;-63
2023/03/31 09:12:56;;;;;;;2.47;0.90;;;13.60;78.70;;;;;;4957941;28;20045;-65
2023/03/31 09:15:36;;;;;;;2.53;0.77;;;13.70;78.30;;;;;;4957849;28;20037;-63
2023/03/31 09:18:14;;;;;;;1.52;0.80;;;13.80;78.20;;;;;;4957917;28;20038;-63
2023/03/31 09:20:47;;;;;;;2.58;1.27;;;13.90;76.00;;;;;;4957469;28;20518;-62
2023/03/31 09:23:31;;;;;;;1.65;0.80;;;14.00;77.00;;;;;;4959253;28;20042;-63
2023/03/31 09:25:58;;;;;;;2.17;1.00;;;14.10;75.80;;;;;;4958436;28;20031;-64
2023/03/31 09:28:37;;;;;;;2.28;1.35;;;14.10;76.80;;;;;;4957794;28;20063;-62
2023/03/31 09:31:16;;;;;;;1.95;0.90;;;14.20;75.40;;;;;;4953457;28;20596;-62
2023/03/31 09:33:46;;;;;;;1.95;1.00;;;14.30;75.30;;;;;;4954728;28;20130;-63
2023/03/31 09:36:16;;;;;;;1.58;0.85;;;14.40;76.00;;;;;;4954148;28;20039;-62
2023/03/31 09:38:43;;;;;;;1.95;1.00;;;14.50;75.30;;;;;;4954138;28;20542;-62
2023/03/31 09:41:10;;;;;;;2.33;0.90;;;14.60;75.60;;;;;;4954810;28;20039;-63
2023/03/31 09:43:37;;;;;;;2.08;1.10;;;14.60;73.30;;;;;;4953859;28;20091;-62
2023/03/31 09:46:13;;;;;;;2.47;0.95;;;14.70;73.00;;;;;;4956086;28;20144;-62
2023/03/31 09:48:47;;;;;;;2.33;1.20;;;14.80;72.80;;;;;;4953433;28;20112;-62
2023/03/31 09:51:22;;;;;;;2.60;1.05;;;14.90;73.60;;;;;;4953296;28;20039;-62
2023/03/31 09:54:06;;;;;;;;;;;14.90;73.40;;;;;;4953986;28;20380;-63
2023/03/31 09:56:47;;;;;;;1.52;0.90;;;15.10;70.70;;;;;;4954188;28;19977;-63
2023/03/31 09:59:30;;;;;;;1.65;0.70;;;15.20;69.90;;;;;;4962684;28;20047;-62
2023/03/31 10:01:58;;;;;;;5.35;1.10;;;15.30;70.70;;;;;;4962021;28;20041;-63
2023/03/31 10:04:27;;;;;;;1.88;0.95;;;15.30;71.30;;;;;;4961804;28;20094;-63
2023/03/31 10:06:54;;;;;;;2.75;0.88;;;15.40;70.10;;;;;;4960756;28;20042;-62
2023/03/31 10:09:25;;;;;;;2.55;0.90;;;15.60;68.70;;;;;;4961553;28;20031;-62
2023/03/31 10:11:54;;;;;;;4.43;2.35;;;15.60;66.20;;;;;;4962714;28;20264;-62
2023/03/31 10:14:26;;;;;;;2.30;0.80;;;15.70;66.60;;;;;;4960428;28;20029;-61
2023/03/31 10:17:01;;;;;;;1.30;1.10;;;15.70;67.10;;;;;;4960006;28;20437;-61
2023/03/31 10:19:31;;;;;;;;;;;15.80;67.50;;;;;;4961223;28;20538;-62
2023/03/31 10:22:01;;;;;;;0.65;0.50;;;15.80;64.50;;;;;;4959866;28;19990;-62
2023/03/31 10:24:37;;;;;;;3.15;0.70;;;15.80;64.60;;;;;;4958415;28;20468;-63
2023/03/31 10:27:06;;;;;;;1.42;0.90;;;15.80;61.90;;;;;;4960338;28;20096;-63
2023/03/31 10:29:33;;;;;;;3.22;0.50;;;15.90;64.00;;;;;;4960287;28;20090;-61
2023/03/31 10:32:13;;;;;;;4.35;1.98;;;15.80;60.40;;;;;;4957429;28;20423;-62
2023/03/31 10:34:41;;;;;;;2.85;0.90;;;15.80;59.80;;;;;;4954872;28;20565;-62
2023/03/31 10:37:13;;;;;;;3.90;1.40;;;15.80;58.60;;;;;;4959124;28;20041;-62
2023/03/31 10:39:39;;;;;;;3.55;0.88;;;15.90;59.10;;;;;;4957013;28;20081;-62
2023/03/31 10:42:06;;;;;;;4.55;2.25;;;15.90;59.70;;;;;;4958796;28;20035;-62
2023/03/31 10:44:37;;;;;;;3.53;1.85;;;15.90;59.20;;;;;;4958718;28;20035;-63
2023/03/31 10:47:21;;;;;;;2.53;1.02;;;15.90;59.20;;;;;;4960295;28;20042;-61
2023/03/31 10:49:56;;;;;;;2.40;1.20;;;16.00;56.10;;;;;;4959803;28;20142;-62
2023/03/31 10:52:28;;;;;;;2.63;1.55;;;16.10;57.90;;;;;;4957454;28;20034;-64
2023/03/31 10:54:59;;;;;;;3.70;1.35;;;16.10;57.80;;;;;;4959139;28;20063;-63
2023/03/31 10:58:13;;;;;;;2.75;0.70;;;16.20;57.40;;;;;;4958722;28;20035;-64
2023/03/31 11:01:09;;;;;;;2.25;0.50;;;16.20;53.90;;;;;;4884707;29;20580;-63
2023/03/31 11:04:01;;;;;;;1.40;0.90;;;16.20;56.80;;;;;;4888916;29;20465;-62
2023/03/31 11:06:43;;;;;;;2.17;0.80;;;16.30;57.20;;;;;;4932054;28;20031;-62
2023/03/31 11:09:27;;;;;;;1.27;0.70;;;16.40;56.40;;;;;;4957973;28;20035;-62
2023/03/31 11:12:11;;;;;;;3.85;0.80;;;16.40;57.50;;;;;;4959506;28;20503;-62
2023/03/31 11:15:08;;;;;;;1.50;0.60;;;16.50;55.60;;;;;;4956814;28;20042;-62
2023/03/31 11:17:59;;;;;;;2.15;0.70;;;16.60;55.80;;;;;;4948392;28;20042;-64
2023/03/31 11:20:34;;;;;;;3.38;0.77;;;16.70;55.40;;;;;;4958576;28;20622;-62
2023/03/31 11:23:29;;;;;;;2.35;0.82;;;16.80;56.30;;;;;;4959808;28;20035;-63
2023/03/31 11:25:58;;;;;;;;;;;16.90;56.10;;;;;;4957354;28;20584;-62
2023/03/31 11:28:27;;;;;;;3.67;0.63;;;17.00;57.20;;;;;;4957521;28;19922;-63
2023/03/31 11:31:17;;;;;;;1.55;0.88;;;17.00;55.90;;;;;;4957412;28;20434;-63
2023/03/31 11:34:05;;;;;;;2.55;1.30;;;17.10;54.00;;;;;;4956341;28;20043;-64
2023/03/31 11:36:56;;;;;;;3.90;1.00;;;17.10;54.80;;;;;;4956662;28;20045;-63
2023/03/31 11:39:42;;;;;;;1.85;0.60;;;17.20;52.10;;;;;;4957522;28;20427;-63
2023/03/31 11:42:15;;;;;;;3.15;0.98;;;17.20;51.00;;;;;;4954869;28;20529;-63
2023/03/31 11:44:44;;;;;;;1.73;0.80;;;17.30;52.90;;;;;;4955558;28;20042;-63
2023/03/31 11:47:20;;;;;;;7.00;0.57;;;17.30;52.10;;;;;;4953155;28;20043;-63
2023/03/31 11:49:58;;;;;;;2.05;0.88;;;17.40;49.40;;;;;;4957874;28;20039;-63
2023/03/31 11:52:29;;;;;;;2.03;0.60;;;17.40;50.40;;;;;;4956287;28;20130;-63
2023/03/31 11:54:58;;;;;;;4.22;1.10;;;17.50;49.50;;;;;;4957880;28;20051;-63
2023/03/31 11:57:46;;;;;;;2.65;0.60;;;17.60;51.00;;;;;;4957067;28;20635;-63
2023/03/31 12:00:17;;;;;;;1.88;0.98;;;17.50;48.10;;;;;;4958366;28;20065;-61
2023/03/31 12:02:56;;;;;;;3.38;0.88;;;17.50;47.90;;;;;;4957789;28;20096;-63
2023/03/31 12:05:26;;;;;;;2.17;0.65;;;17.40;48.40;;;;;;4956724;28;20469;-62
2023/03/31 12:07:57;;;;;;;2.70;0.82;;;17.40;49.30;;;;;;4955551;28;20031;-64
2023/03/31 12:10:38;;;;;;;4.65;0.88;;;17.40;50.10;;;;;;4956996;28;20074;-63
2023/03/31 12:13:28;;;;;;;3.55;0.75;;;17.40;49.50;;;;;;4958437;28;20134;-61
2023/03/31 12:16:08;;;;;;;1.73;0.50;;;17.30;46.60;;;;;;4955947;28;20045;-63
2023/03/31 12:18:57;;;;;;;1.10;0.25;;;17.20;48.20;;;;;;4951705;28;20035;-61
2023/03/31 12:21:26;;;;;;;2.38;0.30;;;16.90;50.30;;;;;;4953494;28;20758;-62
2023/03/31 12:23:51;;;;;;;1.67;0.30;;;16.60;51.30;;;;;;4958140;28;20043;-63
2023/03/31 12:26:47;;;;;;;1.00;0.20;;;16.30;52.30;;;;;;4957073;28;20038;-63
2023/03/31 12:29:20;;;;;;;2.38;0.22;;;15.90;53.50;;;;;;4959202;28;20112;-63
2023/03/31 12:31:47;;;;;;;2.65;0.30;;;15.60;54.30;;;;;;4959202;28;20481;-62
2023/03/31 12:34:16;;;;;;;0.35;0.10;;;15.30;55.20;;;;;;4957919;28;20102;-62
2023/03/31 12:36:53;;;;;;;1.15;0.22;;;15.10;56.10;;;;;;4957669;28;20135;-62
2023/03/31 12:39:38;;;;;;;1.05;0.20;;;14.90;57.20;;;;;;4958551;28;20402;-61
2023/03/31 12:42:18;;;;;;;0.77;0.32;;;14.70;57.60;;;;;;4960369;28;20395;-63
2023/03/31 12:45:20;;;;;;;0.77;0.20;;;14.70;58.90;;;;;;4957275;28;20038;-63
2023/03/31 12:48:24;;;;;;;1.40;0.28;;;14.60;58.60;;;;;;4958833;28;20050;-61
2023/03/31 12:51:15;;;;;;;1.48;0.40;;;14.60;58.80;;;;;;4932468;28;20446;-62
2023/03/31 12:54:02;;;;;;;2.83;0.30;;;14.60;59.50;;;;;;4959058;28;20098;-63
2023/03/31 12:56:49;;;;;;;2.35;0.50;;;14.50;59.50;;;;;;4957663;28;20042;-64
2023/03/31 12:59:24;;;;;;;3.60;0.60;;;14.50;60.30;;;;;;4958606;28;20062;-62
2023/03/31 13:02:08;;;;;;;2.00;0.35;;;14.50;60.10;;;;;;4957449;28;20118;-64
2023/03/31 13:04:36;;;;;;;0.80;0.30;;;14.60;59.30;;;;;;4958754;28;20036;-60
2023/03/31 13:07:02;;;;;;;3.33;0.70;;;14.60;59.40;;;;;;4956726;28;20062;-62
2023/03/31 13:09:40;;;;;;;2.17;0.50;;;14.60;59.00;;;;;;4959394;28;20027;-62
2023/03/31 13:12:15;;;;;;;1.60;0.40;;;14.60;59.10;;;;;;4957862;28;20023;-61